createdAt,value
2019-05-18T00:00:03.991Z,0.00
2019-05-18T00:01:03.964Z,0.00
2019-05-18T00:02:03.972Z,0.00
2019-05-18T00:03:03.943Z,0.00
2019-05-18T00:04:03.956Z,0.00
2019-05-18T00:05:04.006Z,0.00
2019-05-18T00:06:03.916Z,0.00
2019-05-18T00:07:03.900Z,0.00
2019-05-18T00:08:03.940Z,0.00
2019-05-18T00:09:03.898Z,0.00
2019-05-18T00:10:03.886Z,0.00
2019-05-18T00:11:03.859Z,0.00
2019-05-18T00:12:03.856Z,0.00
2019-05-18T00:13:03.863Z,0.00
2019-05-18T00:14:03.836Z,0.00
2019-05-18T00:15:03.830Z,0.00
2019-05-18T00:16:03.855Z,0.00
2019-05-18T00:17:03.824Z,0.00
2019-05-18T00:18:03.812Z,0.00
2019-05-18T00:19:03.784Z,0.00
2019-05-18T00:20:03.845Z,0.00
2019-05-18T00:21:03.776Z,0.00
2019-05-18T00:22:03.789Z,0.00
2019-05-18T00:23:03.801Z,0.00
2019-05-18T00:24:03.737Z,0.00
2019-05-18T00:25:03.738Z,0.00
2019-05-18T00:26:03.694Z,0.00
2019-05-18T00:27:03.686Z,0.00
2019-05-18T00:28:03.782Z,0.00
2019-05-18T00:29:03.677Z,0.00
2019-05-18T00:30:03.677Z,0.00
2019-05-18T00:31:03.645Z,0.00
2019-05-18T00:32:03.743Z,0.00
2019-05-18T00:33:03.634Z,0.00
2019-05-18T00:34:03.629Z,0.00
2019-05-18T00:35:03.621Z,0.00
2019-05-18T00:36:03.587Z,0.00
2019-05-18T00:37:03.582Z,0.00
2019-05-18T00:38:03.572Z,0.00
2019-05-18T00:39:03.592Z,0.00
2019-05-18T00:40:03.560Z,0.00
2019-05-18T00:41:03.560Z,0.00
2019-05-18T00:42:03.548Z,0.00
2019-05-18T00:43:03.525Z,0.00
2019-05-18T00:44:03.503Z,0.00
2019-05-18T00:45:03.505Z,0.00
2019-05-18T00:46:03.482Z,0.00
2019-05-18T00:47:03.510Z,0.00
2019-05-18T00:48:03.520Z,0.00
2019-05-18T00:49:03.472Z,0.00
2019-05-18T00:50:03.462Z,0.00
2019-05-18T00:51:03.438Z,0.00
2019-05-18T00:52:03.418Z,0.00
2019-05-18T00:53:03.408Z,0.00
2019-05-18T00:54:03.408Z,0.00
2019-05-18T00:55:03.440Z,0.00
2019-05-18T00:56:03.372Z,0.00
2019-05-18T00:57:03.363Z,0.00
2019-05-18T00:58:03.349Z,0.00
2019-05-18T00:59:03.350Z,0.00
2019-05-18T01:00:03.352Z,0.00
2019-05-18T01:01:03.384Z,0.00
2019-05-18T01:02:03.311Z,0.00
2019-05-18T01:03:03.300Z,0.00
2019-05-18T01:04:03.284Z,0.00
2019-05-18T01:05:03.290Z,0.00
2019-05-18T01:06:03.284Z,0.00
2019-05-18T01:07:03.258Z,0.00
2019-05-18T01:08:03.282Z,0.00
2019-05-18T01:09:03.243Z,0.00
2019-05-18T01:10:03.244Z,0.00
2019-05-18T01:11:03.222Z,0.00
2019-05-18T01:12:03.205Z,0.00
2019-05-18T01:13:03.190Z,0.00
2019-05-18T01:14:03.204Z,0.00
2019-05-18T01:15:03.237Z,0.00
2019-05-18T01:16:03.160Z,0.00
2019-05-18T01:17:03.160Z,0.00
2019-05-18T01:18:03.143Z,0.00
2019-05-18T01:19:03.126Z,0.00
2019-05-18T01:20:03.140Z,0.00
2019-05-18T01:21:03.103Z,0.00
2019-05-18T01:22:03.118Z,0.00
2019-05-18T01:23:03.094Z,0.00
2019-05-18T01:24:03.071Z,0.00
2019-05-18T01:25:03.062Z,0.00
2019-05-18T01:26:03.062Z,0.00
2019-05-18T01:27:03.043Z,0.00
2019-05-18T01:28:03.080Z,0.00
2019-05-18T01:29:03.025Z,0.00
2019-05-18T01:30:03.009Z,0.00
2019-05-18T01:31:03.019Z,0.00
2019-05-18T01:32:02.990Z,0.00
2019-05-18T01:33:02.976Z,0.00
2019-05-18T01:34:02.962Z,0.00
2019-05-18T01:35:02.953Z,0.00
2019-05-18T01:36:02.960Z,0.00
2019-05-18T01:37:02.992Z,0.00
2019-05-18T01:38:02.945Z,0.00
2019-05-18T01:39:02.914Z,0.00
2019-05-18T01:40:02.900Z,0.00
2019-05-18T01:41:02.913Z,0.00
2019-05-18T01:42:02.880Z,0.00
2019-05-18T01:43:02.872Z,0.00
2019-05-18T01:44:02.893Z,0.00
2019-05-18T01:45:15.838Z,0.00
2019-05-18T01:46:03.920Z,0.00
2019-05-18T01:47:02.831Z,0.00
2019-05-18T01:48:13.135Z,0.00
2019-05-18T01:49:03.858Z,0.00
2019-05-18T01:50:02.813Z,0.00
2019-05-18T01:51:02.801Z,0.00
2019-05-18T01:52:02.840Z,0.00
2019-05-18T01:53:02.840Z,0.00
2019-05-18T01:54:02.778Z,0.00
2019-05-18T01:55:02.749Z,0.00
2019-05-18T01:56:02.768Z,0.00
2019-05-18T01:57:02.724Z,0.00
2019-05-18T01:58:02.717Z,0.00
2019-05-18T01:59:02.702Z,0.00
2019-05-18T02:00:02.774Z,0.00
2019-05-18T02:01:02.690Z,0.00
2019-05-18T02:02:02.703Z,0.00
2019-05-18T02:03:02.654Z,0.00
2019-05-18T02:04:02.641Z,0.00
2019-05-18T02:05:02.678Z,0.00
2019-05-18T02:06:02.637Z,0.00
2019-05-18T02:07:02.613Z,0.00
2019-05-18T02:08:02.621Z,0.00
2019-05-18T02:09:02.587Z,0.00
2019-05-18T02:10:02.754Z,0.00
2019-05-18T02:11:02.607Z,0.00
2019-05-18T02:12:02.580Z,0.00
2019-05-18T02:13:02.926Z,0.00
2019-05-18T02:14:02.594Z,0.00
2019-05-18T02:15:02.522Z,0.00
2019-05-18T02:16:02.528Z,0.00
2019-05-18T02:17:02.502Z,0.00
2019-05-18T02:18:02.500Z,0.00
2019-05-18T02:19:02.480Z,0.00
2019-05-18T02:20:02.479Z,0.00
2019-05-18T02:21:02.478Z,0.00
2019-05-18T02:22:02.464Z,0.00
2019-05-18T02:23:02.441Z,0.00
2019-05-18T02:24:02.481Z,0.00
2019-05-18T02:25:02.413Z,0.00
2019-05-18T02:26:02.468Z,0.00
2019-05-18T02:27:02.416Z,0.00
2019-05-18T02:28:02.387Z,0.00
2019-05-18T02:29:02.372Z,0.00
2019-05-18T02:30:02.377Z,0.00
2019-05-18T02:31:02.373Z,0.00
2019-05-18T02:32:02.386Z,0.00
2019-05-18T02:33:02.329Z,0.00
2019-05-18T02:34:02.323Z,0.00
2019-05-18T02:35:02.327Z,0.00
2019-05-18T02:36:02.342Z,0.00
2019-05-18T02:37:02.293Z,0.00
2019-05-18T02:38:02.319Z,0.00
2019-05-18T02:39:02.272Z,0.00
2019-05-18T02:40:02.285Z,0.00
2019-05-18T02:41:02.278Z,0.00
2019-05-18T02:42:02.261Z,0.00
2019-05-18T02:43:02.236Z,0.00
2019-05-18T02:44:02.239Z,0.00
2019-05-18T02:45:02.259Z,0.00
2019-05-18T02:46:02.201Z,0.00
2019-05-18T02:47:02.201Z,0.00
2019-05-18T02:48:02.184Z,0.00
2019-05-18T02:49:02.181Z,0.00
2019-05-18T02:50:02.150Z,0.00
2019-05-18T02:51:02.172Z,0.00
2019-05-18T02:52:02.164Z,0.00
2019-05-18T02:53:02.123Z,0.00
2019-05-18T02:54:02.114Z,0.00
2019-05-18T02:55:02.100Z,0.00
2019-05-18T02:56:02.097Z,0.00
2019-05-18T02:57:02.082Z,0.00
2019-05-18T02:58:02.093Z,0.00
2019-05-18T02:59:02.064Z,0.00
2019-05-18T03:00:02.052Z,0.00
2019-05-18T03:01:02.040Z,0.00
2019-05-18T03:02:02.033Z,0.00
2019-05-18T03:03:02.010Z,0.00
2019-05-18T03:04:02.022Z,0.00
2019-05-18T03:05:02.028Z,0.00
2019-05-18T03:06:01.983Z,0.00
2019-05-18T03:07:01.978Z,0.00
2019-05-18T03:08:01.958Z,0.00
2019-05-18T03:09:01.956Z,0.00
2019-05-18T03:10:01.972Z,0.00
2019-05-18T03:11:01.925Z,0.00
2019-05-18T03:12:01.960Z,0.00
2019-05-18T03:13:01.911Z,0.00
2019-05-18T03:14:02.010Z,0.00
2019-05-18T03:15:01.927Z,0.00
2019-05-18T03:16:01.890Z,0.00
2019-05-18T03:17:01.882Z,0.00
2019-05-18T03:18:01.872Z,0.00
2019-05-18T03:19:08.404Z,0.00
2019-05-18T03:20:02.863Z,0.00
2019-05-18T03:21:01.818Z,0.00
2019-05-18T03:22:01.829Z,0.00
2019-05-18T03:23:01.792Z,0.00
2019-05-18T03:24:01.803Z,0.00
2019-05-18T03:25:01.773Z,0.00
2019-05-18T03:26:01.786Z,0.00
2019-05-18T03:27:01.773Z,0.00
2019-05-18T03:28:01.736Z,0.00
2019-05-18T03:29:01.726Z,0.00
2019-05-18T03:30:01.765Z,0.00
2019-05-18T03:31:01.743Z,0.00
2019-05-18T03:32:01.735Z,0.00
2019-05-18T03:33:01.700Z,0.00
2019-05-18T03:34:01.683Z,0.00
2019-05-18T03:35:01.741Z,0.00
2019-05-18T03:36:01.650Z,0.00
2019-05-18T03:37:01.666Z,0.00
2019-05-18T03:38:01.637Z,0.00
2019-05-18T03:39:01.629Z,5.62
2019-05-18T03:40:01.617Z,5.62
2019-05-18T03:41:01.620Z,5.62
2019-05-18T03:42:01.624Z,5.62
2019-05-18T03:43:01.598Z,5.62
2019-05-18T03:44:01.608Z,5.62
2019-05-18T03:45:01.601Z,5.62
2019-05-18T03:46:01.543Z,11.25
2019-05-18T03:47:01.559Z,11.25
2019-05-18T03:48:01.566Z,11.25
2019-05-18T03:49:01.541Z,11.25
2019-05-18T03:50:01.514Z,16.88
2019-05-18T03:51:01.500Z,16.88
2019-05-18T03:52:01.492Z,16.88
2019-05-18T03:53:01.479Z,22.50
2019-05-18T03:54:01.498Z,22.50
2019-05-18T03:55:01.456Z,22.50
2019-05-18T03:56:01.458Z,28.12
2019-05-18T03:57:01.449Z,28.12
2019-05-18T03:58:01.444Z,28.12
2019-05-18T03:59:01.410Z,33.75
2019-05-18T04:00:01.477Z,33.75
2019-05-18T04:01:01.384Z,33.75
2019-05-18T04:02:01.390Z,39.38
2019-05-18T04:03:01.376Z,39.38
2019-05-18T04:04:01.363Z,45.00
2019-05-18T04:05:01.343Z,45.00
2019-05-18T04:06:01.423Z,45.00
2019-05-18T04:07:01.348Z,50.62
2019-05-18T04:08:01.339Z,50.62
2019-05-18T04:09:01.310Z,56.25
2019-05-18T04:10:01.292Z,56.25
2019-05-18T04:11:01.284Z,61.88
2019-05-18T04:12:01.273Z,61.88
2019-05-18T04:13:01.272Z,67.50
2019-05-18T04:14:01.285Z,67.50
2019-05-18T04:15:01.267Z,73.12
2019-05-18T04:16:01.233Z,73.12
2019-05-18T04:17:01.219Z,78.75
2019-05-18T04:18:01.236Z,84.38
2019-05-18T04:19:01.200Z,84.38
2019-05-18T04:20:01.200Z,90.00
2019-05-18T04:21:01.198Z,90.00
2019-05-18T04:22:01.169Z,95.62
2019-05-18T04:23:01.166Z,101.25
2019-05-18T04:24:01.146Z,106.88
2019-05-18T04:25:01.124Z,112.50
2019-05-18T04:26:01.145Z,118.12
2019-05-18T04:27:01.115Z,123.75
2019-05-18T04:28:01.107Z,123.75
2019-05-18T04:29:01.122Z,135.00
2019-05-18T04:30:01.097Z,140.62
2019-05-18T04:31:01.066Z,151.88
2019-05-18T04:32:01.058Z,157.50
2019-05-18T04:33:01.056Z,163.12
2019-05-18T04:34:01.050Z,168.75
2019-05-18T04:35:01.019Z,174.38
2019-05-18T04:36:01.026Z,174.38
2019-05-18T04:37:01.021Z,174.38
2019-05-18T04:38:01.003Z,180.00
2019-05-18T04:39:00.977Z,185.62
2019-05-18T04:40:00.978Z,185.62
2019-05-18T04:41:00.976Z,185.62
2019-05-18T04:42:00.972Z,191.25
2019-05-18T04:43:00.942Z,196.88
2019-05-18T04:44:00.932Z,202.50
2019-05-18T04:45:00.917Z,208.12
2019-05-18T04:46:00.909Z,213.75
2019-05-18T04:47:00.900Z,219.38
2019-05-18T04:48:00.930Z,225.00
2019-05-18T04:49:00.878Z,230.62
2019-05-18T04:50:05.015Z,236.25
2019-05-18T04:51:00.852Z,241.88
2019-05-18T04:52:00.846Z,247.50
2019-05-18T04:53:00.842Z,253.12
2019-05-18T04:54:00.848Z,253.12
2019-05-18T04:55:00.811Z,258.75
2019-05-18T04:56:00.804Z,264.38
2019-05-18T04:57:00.791Z,264.38
2019-05-18T04:58:00.788Z,264.38
2019-05-18T04:59:00.763Z,270.00
2019-05-18T05:00:00.756Z,275.62
2019-05-18T05:01:00.752Z,281.25
2019-05-18T05:02:00.818Z,281.25
2019-05-18T05:03:00.725Z,286.88
2019-05-18T05:04:00.959Z,292.50
2019-05-18T05:05:00.695Z,298.12
2019-05-18T05:06:00.691Z,303.75
2019-05-18T05:07:00.679Z,303.75
2019-05-18T05:08:00.688Z,303.75
2019-05-18T05:09:00.652Z,298.12
2019-05-18T05:10:00.640Z,292.50
2019-05-18T05:11:00.628Z,292.50
2019-05-18T05:12:00.621Z,298.12
2019-05-18T05:13:00.617Z,298.12
2019-05-18T05:14:00.633Z,303.75
2019-05-18T05:15:00.589Z,315.00
2019-05-18T05:16:00.576Z,320.62
2019-05-18T05:17:00.575Z,331.88
2019-05-18T05:18:00.586Z,343.12
2019-05-18T05:19:00.543Z,348.75
2019-05-18T05:20:00.588Z,360.00
2019-05-18T05:21:00.560Z,365.62
2019-05-18T05:22:00.523Z,371.25
2019-05-18T05:23:00.509Z,376.88
2019-05-18T05:24:00.500Z,382.50
2019-05-18T05:25:00.485Z,382.50
2019-05-18T05:26:00.468Z,382.50
2019-05-18T05:27:00.479Z,382.50
2019-05-18T05:28:00.459Z,382.50
2019-05-18T05:29:00.481Z,388.12
2019-05-18T05:30:00.434Z,388.12
2019-05-18T05:31:00.425Z,382.50
2019-05-18T05:32:00.439Z,382.50
2019-05-18T05:33:00.401Z,382.50
2019-05-18T05:34:00.405Z,382.50
2019-05-18T05:35:00.404Z,382.50
2019-05-18T05:36:00.362Z,388.12
2019-05-18T05:37:00.358Z,393.75
2019-05-18T05:38:00.349Z,399.38
2019-05-18T05:39:00.349Z,405.00
2019-05-18T05:40:00.341Z,410.62
2019-05-18T05:41:00.320Z,416.25
2019-05-18T05:42:00.297Z,416.25
2019-05-18T05:43:00.293Z,421.88
2019-05-18T05:44:00.295Z,421.88
2019-05-18T05:45:00.270Z,427.50
2019-05-18T05:46:00.298Z,427.50
2019-05-18T05:47:00.242Z,427.50
2019-05-18T05:48:00.243Z,427.50
2019-05-18T05:49:00.233Z,427.50
2019-05-18T05:50:00.213Z,427.50
2019-05-18T05:51:00.208Z,427.50
2019-05-18T05:52:00.206Z,427.50
2019-05-18T05:53:00.223Z,427.50
2019-05-18T05:54:00.187Z,433.12
2019-05-18T05:55:00.158Z,438.75
2019-05-18T05:56:00.145Z,444.38
2019-05-18T05:57:00.139Z,450.00
2019-05-18T05:58:00.126Z,455.62
2019-05-18T05:59:00.163Z,455.62
2019-05-18T06:00:00.121Z,461.25
2019-05-18T06:01:00.108Z,461.25
2019-05-18T06:02:00.082Z,466.88
2019-05-18T06:03:00.092Z,466.88
2019-05-18T06:04:00.067Z,461.25
2019-05-18T06:05:00.045Z,461.25
2019-05-18T06:06:00.041Z,461.25
2019-05-18T06:07:00.137Z,461.25
2019-05-18T06:08:00.014Z,461.25
2019-05-18T06:09:00.038Z,461.25
2019-05-18T06:10:00.013Z,466.88
2019-05-18T06:11:00.023Z,466.88
2019-05-18T06:11:59.976Z,472.50
2019-05-18T06:12:59.972Z,472.50
2019-05-18T06:13:59.992Z,478.12
2019-05-18T06:14:59.957Z,483.75
2019-05-18T06:15:59.932Z,495.00
2019-05-18T06:16:59.927Z,506.25
2019-05-18T06:17:59.916Z,511.88
2019-05-18T06:18:59.911Z,523.12
2019-05-18T06:19:59.897Z,534.38
2019-05-18T06:20:59.925Z,545.62
2019-05-18T06:21:59.865Z,551.25
2019-05-18T06:22:59.886Z,562.50
2019-05-18T06:23:59.920Z,568.12
2019-05-18T06:24:59.875Z,579.38
2019-05-18T06:25:59.852Z,585.00
2019-05-18T06:26:59.828Z,596.25
2019-05-18T06:27:59.813Z,601.88
2019-05-18T06:28:59.823Z,613.12
2019-05-18T06:29:59.787Z,624.38
2019-05-18T06:30:59.772Z,630.00
2019-05-18T06:31:59.755Z,635.62
2019-05-18T06:32:59.747Z,646.88
2019-05-18T06:33:59.736Z,658.12
2019-05-18T06:34:59.773Z,669.38
2019-05-18T06:35:59.716Z,680.62
2019-05-18T06:36:59.703Z,697.50
2019-05-18T06:37:59.689Z,703.12
2019-05-18T06:38:59.678Z,708.75
2019-05-18T06:39:59.681Z,720.00
2019-05-18T06:40:59.673Z,725.62
2019-05-18T06:41:59.656Z,731.25
2019-05-18T06:42:59.646Z,742.50
2019-05-18T06:43:59.632Z,748.12
2019-05-18T06:44:59.635Z,759.38
2019-05-18T06:45:59.620Z,765.00
2019-05-18T06:46:59.589Z,765.00
2019-05-18T06:47:59.594Z,765.00
2019-05-18T06:48:59.643Z,770.62
2019-05-18T06:49:59.584Z,776.25
2019-05-18T06:51:07.082Z,787.50
2019-05-18T06:52:00.544Z,793.12
2019-05-18T06:52:59.528Z,798.75
2019-05-18T06:53:59.521Z,804.38
2019-05-18T06:54:59.527Z,804.38
2019-05-18T06:55:59.498Z,804.38
2019-05-18T06:56:59.493Z,804.38
2019-05-18T06:57:59.482Z,804.38
2019-05-18T06:58:59.464Z,798.75
2019-05-18T06:59:59.523Z,804.38
2019-05-18T07:00:59.456Z,810.00
2019-05-18T07:01:59.459Z,815.62
2019-05-18T07:02:59.426Z,821.25
2019-05-18T07:03:59.419Z,826.88
2019-05-18T07:04:59.428Z,838.12
2019-05-18T07:05:59.396Z,849.38
2019-05-18T07:06:59.394Z,860.62
2019-05-18T07:07:59.377Z,871.88
2019-05-18T07:08:59.365Z,883.12
2019-05-18T07:09:59.361Z,900.00
2019-05-18T07:10:59.342Z,928.12
2019-05-18T07:11:59.359Z,978.75
2019-05-18T07:12:59.320Z,1018.12
2019-05-18T07:13:59.312Z,1046.25
2019-05-18T07:15:00.465Z,1085.62
2019-05-18T07:15:59.292Z,1113.75
2019-05-18T07:16:59.311Z,1130.62
2019-05-18T07:17:59.259Z,1136.25
2019-05-18T07:18:59.272Z,1147.50
2019-05-18T07:19:59.257Z,1130.62
2019-05-18T07:20:59.229Z,1108.12
2019-05-18T07:21:59.527Z,1085.62
2019-05-18T07:22:59.204Z,1113.75
2019-05-18T07:23:59.194Z,1068.75
2019-05-18T07:24:59.200Z,1068.75
2019-05-18T07:25:59.173Z,1074.38
2019-05-18T07:26:59.168Z,1068.75
2019-05-18T07:27:59.153Z,1057.50
2019-05-18T07:28:59.140Z,1046.25
2019-05-18T07:29:59.141Z,1051.88
2019-05-18T07:30:59.125Z,1057.50
2019-05-18T07:31:59.121Z,1063.12
2019-05-18T07:32:59.099Z,1057.50
2019-05-18T07:33:59.091Z,1068.75
2019-05-18T07:34:59.088Z,1074.38
2019-05-18T07:35:59.068Z,1119.38
2019-05-18T07:36:59.061Z,1220.62
2019-05-18T07:37:59.046Z,1237.50
2019-05-18T07:38:59.033Z,1158.75
2019-05-18T07:39:59.033Z,1164.38
2019-05-18T07:40:59.011Z,1113.75
2019-05-18T07:41:59.000Z,1102.50
2019-05-18T07:42:58.993Z,1102.50
2019-05-18T07:43:58.983Z,1108.12
2019-05-18T07:44:58.996Z,1141.88
2019-05-18T07:45:58.957Z,1158.75
2019-05-18T07:46:58.948Z,1181.25
2019-05-18T07:47:58.935Z,1158.75
2019-05-18T07:48:58.923Z,1186.88
2019-05-18T07:49:58.932Z,1248.75
2019-05-18T07:50:58.950Z,1305.00
2019-05-18T07:51:58.928Z,1485.00
2019-05-18T07:52:58.881Z,1546.88
2019-05-18T07:53:58.872Z,1513.12
2019-05-18T07:54:58.860Z,1659.38
2019-05-18T07:55:58.860Z,1513.12
2019-05-18T07:56:58.840Z,1530.00
2019-05-18T07:57:58.830Z,1642.50
2019-05-18T07:58:58.816Z,1591.88
2019-05-18T07:59:58.807Z,1575.00
2019-05-18T08:00:58.823Z,1569.38
2019-05-18T08:01:58.786Z,1631.25
2019-05-18T08:02:58.773Z,1614.38
2019-05-18T08:03:58.763Z,1541.25
2019-05-18T08:04:58.755Z,1473.75
2019-05-18T08:05:58.756Z,1417.50
2019-05-18T08:06:58.732Z,1485.00
2019-05-18T08:07:58.721Z,1440.00
2019-05-18T08:08:58.721Z,1400.62
2019-05-18T08:09:58.701Z,1552.50
2019-05-18T08:10:58.699Z,1608.75
2019-05-18T08:11:58.677Z,1811.25
2019-05-18T08:12:58.685Z,1451.25
2019-05-18T08:13:58.659Z,1676.25
2019-05-18T08:14:58.647Z,1434.38
2019-05-18T08:15:58.645Z,1406.25
2019-05-18T08:16:58.632Z,1378.12
2019-05-18T08:17:58.620Z,1299.38
2019-05-18T08:18:58.602Z,1305.00
2019-05-18T08:19:58.594Z,1215.00
2019-05-18T08:20:58.608Z,1170.00
2019-05-18T08:21:58.580Z,1136.25
2019-05-18T08:22:58.562Z,1141.88
2019-05-18T08:23:58.550Z,1164.38
2019-05-18T08:24:58.539Z,1158.75
2019-05-18T08:25:58.544Z,1158.75
2019-05-18T08:27:01.997Z,1170.00
2019-05-18T08:27:58.507Z,1198.12
2019-05-18T08:28:58.496Z,1203.75
2019-05-18T08:29:58.485Z,1237.50
2019-05-18T08:30:58.486Z,1310.62
2019-05-18T08:31:58.512Z,1282.50
2019-05-18T08:32:58.454Z,1282.50
2019-05-18T08:33:58.442Z,1310.62
2019-05-18T08:34:58.432Z,1310.62
2019-05-18T08:35:58.433Z,1321.88
2019-05-18T08:36:58.415Z,1327.50
2019-05-18T08:37:58.410Z,1327.50
2019-05-18T08:38:58.388Z,1355.62
2019-05-18T08:39:58.378Z,1411.88
2019-05-18T08:40:58.381Z,1518.75
2019-05-18T08:41:58.355Z,1524.38
2019-05-18T08:42:58.346Z,1507.50
2019-05-18T08:43:58.336Z,1597.50
2019-05-18T08:44:58.327Z,1591.88
2019-05-18T08:45:58.323Z,1591.88
2019-05-18T08:46:58.304Z,1625.62
2019-05-18T08:47:58.294Z,1546.88
2019-05-18T08:48:58.281Z,1721.25
2019-05-18T08:49:58.270Z,1535.62
2019-05-18T08:50:58.282Z,1496.25
2019-05-18T08:52:07.865Z,1479.38
2019-05-18T08:52:59.237Z,1462.50
2019-05-18T08:53:58.241Z,1417.50
2019-05-18T08:54:58.219Z,1395.00
2019-05-18T08:55:58.228Z,1361.25
2019-05-18T08:56:58.196Z,1350.00
2019-05-18T08:57:58.189Z,1378.12
2019-05-18T08:58:58.177Z,1372.50
2019-05-18T08:59:58.176Z,1395.00
2019-05-18T09:00:58.153Z,1395.00
2019-05-18T09:01:58.154Z,1406.25
2019-05-18T09:02:58.131Z,1417.50
2019-05-18T09:03:58.121Z,1428.75
2019-05-18T09:04:58.111Z,1456.88
2019-05-18T09:05:58.100Z,1591.88
2019-05-18T09:06:58.103Z,1586.25
2019-05-18T09:07:58.079Z,1642.50
2019-05-18T09:08:58.067Z,1957.50
2019-05-18T09:09:58.056Z,1681.88
2019-05-18T09:10:58.047Z,1665.00
2019-05-18T09:11:58.052Z,2002.50
2019-05-18T09:12:58.026Z,2041.88
2019-05-18T09:13:58.013Z,2255.62
2019-05-18T09:14:58.004Z,2199.38
2019-05-18T09:15:57.996Z,2058.75
2019-05-18T09:16:57.996Z,2115.00
2019-05-18T09:17:57.977Z,1974.38
2019-05-18T09:18:57.963Z,1940.62
2019-05-18T09:19:57.954Z,2171.25
2019-05-18T09:20:57.968Z,2261.25
2019-05-18T09:21:57.971Z,2317.50
2019-05-18T09:22:57.927Z,2351.25
2019-05-18T09:23:57.935Z,2244.38
2019-05-18T09:24:57.905Z,2306.25
2019-05-18T09:25:57.894Z,2250.00
2019-05-18T09:26:57.888Z,2086.88
2019-05-18T09:27:57.868Z,2030.62
2019-05-18T09:28:57.861Z,1985.62
2019-05-18T09:29:57.848Z,1940.62
2019-05-18T09:30:57.837Z,1805.62
2019-05-18T09:31:57.838Z,1732.50
2019-05-18T09:32:57.819Z,1811.25
2019-05-18T09:33:57.807Z,1901.25
2019-05-18T09:34:57.805Z,2036.25
2019-05-18T09:35:57.784Z,2165.62
2019-05-18T09:36:57.790Z,2244.38
2019-05-18T09:37:57.767Z,2238.75
2019-05-18T09:38:57.792Z,2221.88
2019-05-18T09:39:57.751Z,2013.75
2019-05-18T09:40:57.739Z,2205.00
2019-05-18T09:41:57.734Z,2193.75
2019-05-18T09:42:57.710Z,1957.50
2019-05-18T09:43:57.706Z,1957.50
2019-05-18T09:44:57.704Z,2064.38
2019-05-18T09:45:57.698Z,2075.62
2019-05-18T09:46:57.677Z,2160.00
2019-05-18T09:47:57.681Z,2205.00
2019-05-18T09:48:57.650Z,2171.25
2019-05-18T09:49:57.636Z,2171.25
2019-05-18T09:50:57.626Z,2092.50
2019-05-18T09:51:57.627Z,2030.62
2019-05-18T09:52:57.603Z,1895.62
2019-05-18T09:53:57.594Z,2041.88
2019-05-18T09:54:57.584Z,2238.75
2019-05-18T09:55:57.573Z,2176.88
2019-05-18T09:56:57.574Z,1968.75
2019-05-18T09:57:57.557Z,1805.62
2019-05-18T09:58:57.544Z,1681.88
2019-05-18T09:59:57.535Z,1704.38
2019-05-18T10:00:57.529Z,1828.12
2019-05-18T10:01:57.523Z,1800.00
2019-05-18T10:02:57.504Z,1884.38
2019-05-18T10:03:57.496Z,1985.62
2019-05-18T10:04:57.484Z,1957.50
2019-05-18T10:05:57.474Z,1873.12
2019-05-18T10:06:57.471Z,1788.75
2019-05-18T10:07:57.449Z,1923.75
2019-05-18T10:08:57.450Z,2143.12
2019-05-18T10:09:57.427Z,2368.12
2019-05-18T10:10:57.417Z,2345.62
2019-05-18T10:11:57.428Z,2289.38
2019-05-18T10:12:57.397Z,2255.62
2019-05-18T10:13:57.388Z,2182.50
2019-05-18T10:14:57.383Z,2109.38
2019-05-18T10:15:57.379Z,2131.88
2019-05-18T10:16:57.392Z,2115.00
2019-05-18T10:17:57.342Z,2092.50
2019-05-18T10:18:57.331Z,2126.25
2019-05-18T10:19:57.320Z,2126.25
2019-05-18T10:20:57.312Z,2126.25
2019-05-18T10:21:57.301Z,2120.62
2019-05-18T10:23:11.950Z,2143.12
2019-05-18T10:23:58.280Z,2143.12
2019-05-18T10:24:57.270Z,2126.25
2019-05-18T10:25:57.256Z,2115.00
2019-05-18T10:26:57.247Z,2120.62
2019-05-18T10:27:57.245Z,2154.38
2019-05-18T10:28:57.226Z,2160.00
2019-05-18T10:29:57.226Z,2131.88
2019-05-18T10:30:57.232Z,2199.38
2019-05-18T10:31:57.197Z,2295.00
2019-05-18T10:32:57.193Z,2396.25
2019-05-18T10:33:57.175Z,2351.25
2019-05-18T10:34:57.161Z,2413.12
2019-05-18T10:35:57.153Z,2469.38
2019-05-18T10:36:57.149Z,2508.75
2019-05-18T10:37:57.140Z,2548.12
2019-05-18T10:38:57.130Z,2581.88
2019-05-18T10:39:57.111Z,2491.88
2019-05-18T10:40:57.105Z,2565.00
2019-05-18T10:41:57.092Z,2536.88
2019-05-18T10:42:57.092Z,2553.75
2019-05-18T10:43:57.142Z,2503.12
2019-05-18T10:44:57.059Z,2368.12
2019-05-18T10:45:57.047Z,2255.62
2019-05-18T10:46:57.041Z,2103.75
2019-05-18T10:47:57.075Z,2486.25
2019-05-18T10:48:57.024Z,2598.75
2019-05-18T10:49:57.022Z,2688.75
2019-05-18T10:50:57.040Z,2683.12
2019-05-18T10:51:56.986Z,2638.12
2019-05-18T10:52:56.985Z,2581.88
2019-05-18T10:53:56.966Z,2638.12
2019-05-18T10:54:56.954Z,2649.38
2019-05-18T10:55:56.949Z,2694.38
2019-05-18T10:56:56.936Z,2638.12
2019-05-18T10:57:56.933Z,2536.88
2019-05-18T10:58:56.916Z,2311.88
2019-05-18T10:59:56.902Z,2503.12
2019-05-18T11:00:56.898Z,2401.88
2019-05-18T11:01:56.884Z,2413.12
2019-05-18T11:02:56.887Z,2475.00
2019-05-18T11:03:56.880Z,2503.12
2019-05-18T11:04:56.912Z,2626.88
2019-05-18T11:05:56.844Z,2548.12
2019-05-18T11:06:56.831Z,2565.00
2019-05-18T11:07:56.866Z,2503.12
2019-05-18T11:08:56.813Z,2463.75
2019-05-18T11:09:56.800Z,2424.38
2019-05-18T11:10:56.806Z,2413.12
2019-05-18T11:11:56.779Z,2317.50
2019-05-18T11:12:56.783Z,2272.50
2019-05-18T11:13:56.758Z,2283.75
2019-05-18T11:14:56.748Z,2205.00
2019-05-18T11:15:56.740Z,2199.38
2019-05-18T11:16:56.729Z,2244.38
2019-05-18T11:17:56.729Z,2390.62
2019-05-18T11:18:56.707Z,2289.38
2019-05-18T11:19:56.700Z,2216.25
2019-05-18T11:20:56.698Z,2221.88
2019-05-18T11:21:56.678Z,2238.75
2019-05-18T11:22:56.678Z,2109.38
2019-05-18T11:23:56.656Z,2098.12
2019-05-18T11:24:56.644Z,2221.88
2019-05-18T11:25:56.638Z,2469.38
2019-05-18T11:26:56.632Z,2767.50
2019-05-18T11:27:56.625Z,2970.00
2019-05-18T11:28:56.614Z,3060.00
2019-05-18T11:29:56.595Z,3161.25
2019-05-18T11:30:56.584Z,3161.25
2019-05-18T11:31:56.577Z,3082.50
2019-05-18T11:32:56.578Z,3127.50
2019-05-18T11:33:56.559Z,2992.50
2019-05-18T11:34:56.548Z,2908.12
2019-05-18T11:35:56.534Z,2593.12
2019-05-18T11:36:56.533Z,1816.88
2019-05-18T11:37:56.538Z,1816.88
2019-05-18T11:38:56.872Z,1822.50
2019-05-18T11:39:56.934Z,1912.50
2019-05-18T11:40:56.484Z,2221.88
2019-05-18T11:41:56.546Z,2362.50
2019-05-18T11:42:56.465Z,2115.00
2019-05-18T11:43:56.466Z,1940.62
2019-05-18T11:44:56.444Z,1749.38
2019-05-18T11:45:56.437Z,1721.25
2019-05-18T11:46:56.425Z,1771.88
2019-05-18T11:47:56.427Z,1935.00
2019-05-18T11:48:56.411Z,1974.38
2019-05-18T11:49:56.400Z,2025.00
2019-05-18T11:50:56.381Z,2036.25
2019-05-18T11:51:56.373Z,2058.75
2019-05-18T11:52:56.397Z,2025.00
2019-05-18T11:53:58.581Z,2041.88
2019-05-18T11:54:56.341Z,1996.88
2019-05-18T11:55:56.334Z,1935.00
2019-05-18T11:56:56.337Z,1980.00
2019-05-18T11:57:56.312Z,1968.75
2019-05-18T11:58:56.311Z,1951.88
2019-05-18T11:59:56.292Z,1895.62
2019-05-18T12:00:56.289Z,1845.00
2019-05-18T12:01:56.272Z,1833.75
2019-05-18T12:02:56.261Z,1794.38
2019-05-18T12:03:56.261Z,1788.75
2019-05-18T12:04:56.239Z,1749.38
2019-05-18T12:05:56.229Z,1794.38
2019-05-18T12:06:56.222Z,1760.62
2019-05-18T12:07:56.208Z,1710.00
2019-05-18T12:08:58.588Z,1738.12
2019-05-18T12:09:56.193Z,1760.62
2019-05-18T12:10:56.403Z,1788.75
2019-05-18T12:11:56.170Z,1833.75
2019-05-18T12:12:56.158Z,1833.75
2019-05-18T12:13:56.162Z,1867.50
2019-05-18T12:14:56.138Z,1884.38
2019-05-18T12:15:56.126Z,1845.00
2019-05-18T12:16:56.118Z,1811.25
2019-05-18T12:17:56.111Z,1777.50
2019-05-18T12:18:57.709Z,1681.88
2019-05-18T12:19:56.106Z,1726.88
2019-05-18T12:20:56.087Z,1710.00
2019-05-18T12:21:56.063Z,1631.25
2019-05-18T12:22:56.055Z,1620.00
2019-05-18T12:23:56.052Z,1715.62
2019-05-18T12:24:56.034Z,1743.75
2019-05-18T12:25:56.024Z,1766.25
2019-05-18T12:26:56.012Z,1743.75
2019-05-18T12:27:56.072Z,1771.88
2019-05-18T12:28:56.011Z,1715.62
2019-05-18T12:29:55.980Z,1822.50
2019-05-18T12:30:55.973Z,1805.62
2019-05-18T12:31:55.975Z,1777.50
2019-05-18T12:32:55.954Z,1890.00